Time;durP1;ratioP1;P1;durP2;ratioP2;P2;SDS_P1;SDS_P2;PMS_P1;PMS_P2;Temp;Humidity;BMP_temperature;BMP_pressure;BME280_temperature;BME280_humidity;BME280_pressure;Samples;Min_cycle;Max_cycle;Signal;HPM_P1;HPM_P2
2022/01/09 00:02:20;;;;;;;14.93;10.93;;;1.10;99.90;;;;;;10475405;28;20223;-76
2022/01/09 00:07:42;;;;;;;24.67;14.87;;;1.10;99.90;;;;;;10477762;28;20517;-75
2022/01/09 00:13:04;;;;;;;26.23;14.27;;;1.10;99.90;;;;;;10483604;28;20486;-75
2022/01/09 00:18:26;;;;;;;16.67;12.10;;;1.10;99.90;;;;;;10482274;28;20273;-82
2022/01/09 00:23:48;;;;;;;27.70;15.60;;;1.00;99.90;;;;;;10443510;28;20196;-81
2022/01/09 00:29:10;;;;;;;20.60;13.80;;;1.10;99.90;;;;;;10441231;28;20239;-79
2022/01/09 00:34:31;;;;;;;21.13;14.87;;;1.00;99.90;;;;;;10457434;28;20193;-76
2022/01/09 00:39:53;;;;;;;23.17;15.10;;;1.00;99.90;;;;;;10456638;28;20208;-80
2022/01/09 00:45:16;;;;;;;20.83;12.57;;;1.00;99.90;;;;;;10461785;28;20526;-78
2022/01/09 00:50:41;;;;;;;22.30;13.37;;;0.90;99.90;;;;;;10472732;28;20240;-79
2022/01/09 00:56:03;;;;;;;18.60;11.50;;;0.90;99.90;;;;;;10522538;28;20195;-79
2022/01/09 01:01:24;;;;;;;21.97;14.33;;;1.00;99.90;;;;;;10523211;28;20273;-80
2022/01/09 01:06:49;;;;;;;18.73;12.17;;;0.80;99.90;;;;;;10522877;28;20211;-79
2022/01/09 01:12:11;;;;;;;17.70;12.57;;;0.90;99.90;;;;;;10522042;28;20197;-79
2022/01/09 01:17:35;;;;;;;19.50;12.60;;;0.90;99.90;;;;;;10521419;28;20199;-80
2022/01/09 01:22:58;;;;;;;16.07;10.90;;;0.90;99.90;;;;;;10486165;28;20235;-80
2022/01/09 01:28:20;;;;;;;17.60;11.20;;;0.80;99.90;;;;;;10480305;28;20234;-80
2022/01/09 01:33:42;;;;;;;17.73;10.77;;;0.80;99.90;;;;;;10479871;28;20191;-81
2022/01/09 01:39:05;;;;;;;16.07;11.60;;;0.90;99.90;;;;;;10465142;28;20516;-82
2022/01/09 01:44:41;;;;;;;18.27;10.87;;;0.80;99.90;;;;;;10464960;28;20235;-80
2022/01/09 01:50:05;;;;;;;17.63;11.87;;;0.70;99.90;;;;;;10472984;28;20230;-79
2022/01/09 01:55:28;;;;;;;15.23;11.23;;;0.50;99.90;;;;;;10478112;28;20425;-80
2022/01/09 02:00:50;;;;;;;14.13;10.47;;;0.40;99.90;;;;;;10478494;28;20233;-82
2022/01/09 02:06:17;;;;;;;16.60;10.80;;;0.30;99.90;;;;;;10479237;28;20206;-79
2022/01/09 02:11:39;;;;;;;18.70;11.70;;;0.20;99.90;;;;;;10478096;28;20211;-79
2022/01/09 02:17:00;;;;;;;20.00;11.70;;;0.00;99.90;;;;;;10477687;28;20200;-80
2022/01/09 02:22:27;;;;;;;18.13;12.33;;;0.00;99.90;;;;;;10478249;28;20202;-80
2022/01/09 02:27:49;;;;;;;23.30;14.03;;;-0.10;99.90;;;;;;10477018;28;20406;-82
2022/01/09 02:33:16;;;;;;;23.97;14.10;;;-0.30;99.90;;;;;;10463248;28;20274;-78
2022/01/09 02:38:38;;;;;;;29.50;16.50;;;-0.20;99.90;;;;;;10477987;28;20195;-77
2022/01/09 02:44:07;;;;;;;28.60;16.00;;;-0.10;99.90;;;;;;10476308;28;20325;-75
2022/01/09 02:49:31;;;;;;;28.23;18.37;;;-0.10;99.90;;;;;;10462018;28;20465;-76
2022/01/09 02:55:11;;;;;;;30.73;18.80;;;-0.10;99.90;;;;;;10477821;28;20209;-76
2022/01/09 03:00:36;;;;;;;33.73;19.30;;;-0.10;99.90;;;;;;10476672;28;20381;-80
2022/01/09 03:05:58;;;;;;;32.97;19.30;;;-0.10;99.90;;;;;;10462275;28;20207;-81
2022/01/09 03:11:20;;;;;;;28.20;18.03;;;0.00;99.90;;;;;;10477486;28;20285;-82
2022/01/09 03:16:42;;;;;;;31.37;19.63;;;0.10;99.90;;;;;;10462853;28;20493;-79
2022/01/09 03:22:04;;;;;;;34.60;20.33;;;0.00;99.90;;;;;;10476758;28;20204;-81
2022/01/09 03:27:26;;;;;;;38.20;21.40;;;0.00;99.90;;;;;;10476065;28;20214;-80
2022/01/09 03:32:50;;;;;;;34.07;19.93;;;0.00;99.90;;;;;;10478292;28;20195;-80
2022/01/09 03:38:12;;;;;;;30.30;19.00;;;0.10;99.90;;;;;;10477467;28;20202;-81
2022/01/09 03:43:34;;;;;;;33.63;19.53;;;0.10;99.90;;;;;;10464915;28;20230;-80
2022/01/09 03:48:57;;;;;;;28.87;17.70;;;0.10;99.90;;;;;;10482502;28;20232;-80
2022/01/09 03:54:21;;;;;;;43.07;23.20;;;0.00;99.90;;;;;;10484182;28;20201;-79
2022/01/09 03:59:43;;;;;;;28.53;17.43;;;-0.10;99.90;;;;;;10483138;28;20209;-80
2022/01/09 04:05:08;;;;;;;29.93;16.67;;;-0.10;99.90;;;;;;10482875;28;20194;-80
2022/01/09 04:10:32;;;;;;;30.63;19.20;;;-0.20;99.90;;;;;;10482841;28;20279;-80
2022/01/09 04:15:54;;;;;;;37.60;19.97;;;-0.20;99.90;;;;;;10483871;28;20436;-80
2022/01/09 04:21:27;;;;;;;39.27;20.63;;;-0.10;99.90;;;;;;10483329;28;20228;-79
2022/01/09 04:26:50;;;;;;;35.03;20.77;;;-0.30;99.90;;;;;;10482143;28;20392;-79
2022/01/09 04:32:12;;;;;;;32.20;18.80;;;-0.20;99.90;;;;;;10482376;28;20200;-82
2022/01/09 04:37:35;;;;;;;37.33;21.20;;;-0.20;99.90;;;;;;10481840;28;20193;-81
2022/01/09 04:43:00;;;;;;;41.57;22.47;;;-0.20;99.90;;;;;;10467322;28;20233;-81
2022/01/09 04:48:23;;;;;;;37.80;20.07;;;-0.10;99.90;;;;;;10481542;28;20226;-81
2022/01/09 04:53:45;;;;;;;37.00;21.17;;;-0.10;99.90;;;;;;10466884;28;20511;-81
2022/01/09 04:59:06;;;;;;;37.57;22.27;;;-0.10;99.90;;;;;;10481916;28;20196;-81
2022/01/09 05:04:29;;;;;;;40.43;22.83;;;-0.10;99.90;;;;;;10466416;28;20198;-80
2022/01/09 05:09:51;;;;;;;40.53;23.60;;;-0.10;99.90;;;;;;10480468;28;20271;-79
2022/01/09 05:15:15;;;;;;;39.07;22.60;;;-0.10;99.90;;;;;;10480364;28;20419;-79
2022/01/09 05:20:38;;;;;;;38.70;21.83;;;-0.10;99.90;;;;;;10479770;28;20229;-79
2022/01/09 05:26:00;;;;;;;42.80;23.60;;;-0.10;99.90;;;;;;10465722;28;20502;-79
2022/01/09 05:31:22;;;;;;;46.07;25.57;;;-0.10;99.90;;;;;;10438302;28;20233;-81
2022/01/09 05:36:44;;;;;;;47.20;24.90;;;-0.10;99.90;;;;;;10439242;28;20215;-79
2022/01/09 05:42:08;;;;;;;47.70;26.03;;;-0.10;99.90;;;;;;10438573;28;20203;-81
2022/01/09 05:47:30;;;;;;;55.57;26.83;;;-0.10;99.90;;;;;;10477902;28;20230;-80
2022/01/09 05:52:52;;;;;;;50.27;25.53;;;-0.10;99.90;;;;;;10478427;28;20482;-79
2022/01/09 05:58:14;;;;;;;40.17;22.63;;;0.00;99.90;;;;;;10478745;28;20279;-80
2022/01/09 06:03:36;;;;;;;42.90;22.90;;;0.10;99.90;;;;;;10478141;28;20203;-80
2022/01/09 06:08:58;;;;;;;46.40;24.40;;;0.00;99.90;;;;;;10477991;28;20236;-78
2022/01/09 06:14:22;;;;;;;45.93;24.13;;;0.00;99.90;;;;;;10479218;28;20205;-80
2022/01/09 06:19:45;;;;;;;50.50;27.70;;;0.00;99.90;;;;;;10477415;28;20209;-79
2022/01/09 06:25:07;;;;;;;42.87;25.53;;;0.00;99.90;;;;;;10477690;28;20194;-81
2022/01/09 06:30:29;;;;;;;37.03;21.07;;;0.00;99.90;;;;;;10463363;28;20548;-81
2022/01/09 06:35:51;;;;;;;50.47;27.50;;;0.10;99.90;;;;;;10478070;28;20244;-81
2022/01/09 06:41:13;;;;;;;54.33;33.40;;;0.10;99.90;;;;;;10477925;28;20213;-80
2022/01/09 06:46:35;;;;;;;44.57;27.00;;;0.10;99.90;;;;;;10462088;28;20514;-81
2022/01/09 06:51:57;;;;;;;45.40;24.93;;;0.20;99.90;;;;;;10478006;28;20265;-81
2022/01/09 06:57:18;;;;;;;41.30;24.77;;;0.20;99.90;;;;;;10477682;28;20198;-79
2022/01/09 07:02:40;;;;;;;40.83;23.73;;;0.20;99.90;;;;;;10477718;28;20199;-80
2022/01/09 07:08:02;;;;;;;45.67;23.80;;;0.30;99.90;;;;;;10476621;28;20542;-80
2022/01/09 07:13:24;;;;;;;41.67;22.43;;;0.20;99.90;;;;;;10462176;28;20248;-80
2022/01/09 07:18:46;;;;;;;40.27;21.60;;;0.00;99.90;;;;;;10482754;28;20247;-80
2022/01/09 07:24:08;;;;;;;39.83;21.50;;;0.00;99.90;;;;;;10485589;28;20197;-80
2022/01/09 07:29:30;;;;;;;46.57;26.37;;;0.00;99.90;;;;;;10484094;28;20417;-80
2022/01/09 07:34:53;;;;;;;46.40;25.87;;;0.10;99.90;;;;;;10485221;28;20205;-79
2022/01/09 07:40:17;;;;;;;40.57;22.33;;;0.20;99.90;;;;;;10484916;28;20202;-79
2022/01/09 07:45:39;;;;;;;38.23;22.83;;;0.10;99.90;;;;;;10483057;28;20289;-79
2022/01/09 07:51:01;;;;;;;152.33;91.63;;;0.10;99.90;;;;;;10512980;28;20506;-79
2022/01/09 07:56:23;;;;;;;57.47;32.53;;;0.10;99.90;;;;;;10525792;28;20190;-79
2022/01/09 08:01:45;;;;;;;42.63;25.20;;;0.00;99.90;;;;;;10510598;28;20198;-79
2022/01/09 08:07:08;;;;;;;49.67;26.13;;;-0.10;99.90;;;;;;10528364;28;20409;-81
2022/01/09 08:12:29;;;;;;;59.00;29.37;;;-0.10;99.90;;;;;;10495459;28;20197;-80
2022/01/09 08:17:53;;;;;;;47.30;25.87;;;0.00;99.90;;;;;;10468514;28;20198;-78
2022/01/09 08:23:17;;;;;;;53.40;27.40;;;0.00;99.90;;;;;;10482367;28;20414;-81
2022/01/09 08:28:42;;;;;;;53.43;27.70;;;0.00;99.90;;;;;;10467278;28;20228;-80
2022/01/09 08:34:03;;;;;;;48.00;25.20;;;0.00;99.90;;;;;;10482947;28;20523;-79
2022/01/09 08:39:27;;;;;;;37.63;21.53;;;0.20;99.90;;;;;;10481007;28;20524;-79
2022/01/09 08:44:48;;;;;;;46.77;25.33;;;1.00;99.90;;;;;;10482120;28;20454;-78
2022/01/09 08:50:14;;;;;;;40.20;23.30;;;1.70;99.90;;;;;;10475989;28;20282;-78
2022/01/09 08:55:37;;;;;;;38.43;22.37;;;2.50;99.90;;;;;;10480928;28;20536;-80
2022/01/09 09:01:00;;;;;;;41.30;21.87;;;2.60;99.90;;;;;;10481766;28;20195;-79
2022/01/09 09:06:22;;;;;;;40.50;24.20;;;2.40;99.90;;;;;;10482039;28;20192;-81
2022/01/09 09:11:44;;;;;;;43.30;26.47;;;1.80;99.90;;;;;;10480700;28;20263;-80
2022/01/09 09:17:06;;;;;;;56.73;29.67;;;1.40;99.90;;;;;;10481108;28;20428;-79
2022/01/09 09:22:28;;;;;;;59.83;32.17;;;1.10;99.90;;;;;;10479728;28;20226;-81
2022/01/09 09:27:50;;;;;;;62.50;33.13;;;0.90;99.90;;;;;;10479647;28;20285;-80
2022/01/09 09:33:11;;;;;;;66.10;36.17;;;0.60;99.90;;;;;;10479222;28;20227;-81
2022/01/09 09:38:33;;;;;;;60.80;32.87;;;0.60;99.90;;;;;;10464981;28;20202;-80
2022/01/09 09:43:55;;;;;;;63.83;34.63;;;0.40;99.90;;;;;;10449739;28;20531;-80
2022/01/09 09:49:18;;;;;;;58.67;33.07;;;0.40;99.90;;;;;;10479657;28;20240;-80
2022/01/09 09:54:40;;;;;;;59.83;32.90;;;0.30;99.90;;;;;;10464452;28;20196;-79
2022/01/09 10:00:08;;;;;;;60.93;33.90;;;0.30;99.90;;;;;;10479509;28;20199;-80
2022/01/09 10:05:37;;;;;;;60.47;32.43;;;0.30;99.90;;;;;;10479514;28;20567;-81
2022/01/09 10:10:58;;;;;;;56.43;30.70;;;0.30;99.90;;;;;;10477857;28;20547;-81
2022/01/09 10:16:20;;;;;;;63.30;34.40;;;0.30;99.90;;;;;;10479110;28;20219;-81
2022/01/09 10:21:45;;;;;;;67.00;33.87;;;0.10;99.90;;;;;;10478542;28;20194;-80
2022/01/09 10:27:07;;;;;;;61.73;33.30;;;0.20;99.90;;;;;;10477470;28;20283;-81
2022/01/09 10:32:30;;;;;;;67.37;33.27;;;0.20;99.90;;;;;;10478401;28;20207;-80
2022/01/09 10:38:06;;;;;;;58.33;30.40;;;0.30;99.90;;;;;;10477210;28;20248;-81
2022/01/09 10:43:30;;;;;;;56.77;32.77;;;0.30;99.90;;;;;;10477642;28;20229;-81
2022/01/09 10:48:54;;;;;;;57.43;31.00;;;0.20;99.90;;;;;;10477093;28;20330;-77
2022/01/09 10:54:30;;;;;;;60.10;32.17;;;0.20;99.90;;;;;;10476020;28;20195;-77
2022/01/09 10:59:52;;;;;;;61.63;33.00;;;0.30;99.90;;;;;;10476647;28;20198;-78
2022/01/09 11:05:15;;;;;;;84.10;39.27;;;0.30;99.90;;;;;;10476321;28;20210;-77
2022/01/09 11:10:40;;;;;;;72.77;35.70;;;0.30;99.90;;;;;;10493689;28;20259;-77
2022/01/09 11:21:49;;;;;;;67.00;34.17;;;0.80;99.90;;;;;;10517487;28;20241;-77
2022/01/09 11:27:22;;;;;;;65.23;35.13;;;1.70;99.90;;;;;;10518768;28;20204;-77
2022/01/09 11:33:21;;;;;;;64.60;34.97;;;2.10;99.90;;;;;;10518678;28;20189;-77
2022/01/09 11:39:02;;;;;;;72.83;38.00;;;2.80;99.90;;;;;;10514323;28;20252;-77
2022/01/09 11:44:31;;;;;;;79.63;40.20;;;2.70;99.90;;;;;;10476466;28;20255;-78
2022/01/09 11:49:53;;;;;;;80.23;40.30;;;2.50;99.90;;;;;;10467404;28;20530;-77
2022/01/09 11:55:41;;;;;;;61.90;36.00;;;2.50;99.90;;;;;;10475655;28;20223;-78
2022/01/09 12:01:03;;;;;;;69.33;36.23;;;2.30;99.90;;;;;;10476417;28;20200;-77
2022/01/09 12:06:39;;;;;;;72.07;37.50;;;2.20;99.90;;;;;;10482119;28;20199;-77
2022/01/09 12:12:17;;;;;;;75.77;40.57;;;1.90;99.90;;;;;;10466577;28;20274;-78
2022/01/09 12:17:45;;;;;;;72.77;40.10;;;1.50;99.90;;;;;;10442243;28;20196;-77
2022/01/09 12:23:19;;;;;;;85.17;40.43;;;1.60;99.90;;;;;;10474033;28;20196;-78
2022/01/09 12:28:43;;;;;;;74.57;39.43;;;1.40;99.90;;;;;;10459867;28;20225;-79
2022/01/09 12:34:11;;;;;;;79.23;41.13;;;1.20;99.90;;;;;;10459535;28;20210;-77
2022/01/09 12:39:34;;;;;;;85.27;42.43;;;1.30;99.90;;;;;;10438450;28;20203;-77
2022/01/09 12:44:56;;;;;;;81.83;43.87;;;1.20;99.90;;;;;;10491425;28;20568;-78
2022/01/09 12:50:27;;;;;;;86.60;45.27;;;1.20;99.90;;;;;;10499358;28;20250;-77
2022/01/09 12:55:54;;;;;;;97.50;49.03;;;1.00;99.90;;;;;;10505648;28;20212;-78
2022/01/09 13:01:16;;;;;;;96.80;47.57;;;1.00;99.90;;;;;;10492108;28;20192;-77
2022/01/09 13:06:40;;;;;;;86.27;47.00;;;0.90;99.90;;;;;;10486486;28;20186;-77
2022/01/09 13:12:03;;;;;;;84.67;44.27;;;0.70;99.90;;;;;;10496812;28;20268;-77
2022/01/09 13:17:26;;;;;;;196.70;95.33;;;0.60;99.90;;;;;;10496227;28;20210;-78
2022/01/09 13:23:06;;;;;;;102.50;52.40;;;0.70;99.90;;;;;;10503107;28;20199;-78
2022/01/09 13:28:28;;;;;;;111.03;59.20;;;0.50;99.90;;;;;;10501190;28;20254;-78
2022/01/09 13:33:52;;;;;;;817.23;399.10;;;0.30;99.90;;;;;;10496541;28;20196;-76
2022/01/09 13:39:23;;;;;;;192.17;127.93;;;0.30;99.90;;;;;;10487960;28;20202;-77
2022/01/09 13:44:45;;;;;;;104.13;54.87;;;0.20;99.90;;;;;;10490904;28;20241;-76
2022/01/09 13:50:11;;;;;;;90.53;45.57;;;0.10;99.90;;;;;;10474370;28;20268;-77
2022/01/09 13:55:34;;;;;;;96.30;47.73;;;-0.10;99.90;;;;;;10482653;28;20230;-77
2022/01/09 14:00:57;;;;;;;100.57;49.77;;;-0.20;99.90;;;;;;10502356;28;20380;-76
2022/01/09 14:06:21;;;;;;;102.33;50.77;;;-0.40;99.90;;;;;;10501798;28;20197;-77
2022/01/09 14:11:43;;;;;;;89.93;44.70;;;-0.40;99.90;;;;;;10505272;28;20240;-76
2022/01/09 14:17:33;;;;;;;102.97;47.93;;;-0.50;99.90;;;;;;10495609;28;20201;-77
2022/01/09 14:23:16;;;;;;;99.33;49.27;;;-0.60;99.90;;;;;;10501794;28;20272;-78
2022/01/09 14:28:39;;;;;;;99.77;47.20;;;-0.60;99.90;;;;;;10496627;28;20439;-78
2022/01/09 14:34:01;;;;;;;97.20;47.20;;;-0.70;99.90;;;;;;10494294;28;20219;-74
2022/01/09 14:39:27;;;;;;;115.43;58.20;;;-0.70;99.90;;;;;;10461964;28;20197;-76
2022/01/09 14:44:48;;;;;;;147.10;71.07;;;-0.70;99.90;;;;;;10489299;28;20255;-75
2022/01/09 14:50:12;;;;;;;121.60;62.80;;;-0.80;99.90;;;;;;10489011;28;20307;-77
2022/01/09 14:55:33;;;;;;;132.60;63.90;;;-0.80;99.90;;;;;;10502156;28;20201;-75
2022/01/09 15:00:55;;;;;;;124.37;61.23;;;-0.90;99.90;;;;;;10495514;28;20220;-78
2022/01/09 15:06:18;;;;;;;123.97;57.57;;;-1.00;99.90;;;;;;10495118;28;20210;-78
2022/01/09 15:11:41;;;;;;;121.10;57.50;;;-1.00;99.90;;;;;;10494496;28;20222;-80
2022/01/09 15:17:03;;;;;;;158.73;85.47;;;-1.00;99.90;;;;;;10476058;28;20264;-79
2022/01/09 15:22:26;;;;;;;162.43;78.10;;;-1.00;99.90;;;;;;10476737;28;20194;-80
2022/01/09 15:27:47;;;;;;;250.13;144.23;;;-1.00;99.90;;;;;;10461612;28;20284;-80
2022/01/09 15:33:10;;;;;;;138.30;66.70;;;-1.00;99.90;;;;;;10474836;28;20489;-81
2022/01/09 15:38:32;;;;;;;128.90;63.30;;;-1.10;99.90;;;;;;10476939;28;20210;-79
2022/01/09 15:43:56;;;;;;;144.07;67.67;;;-1.20;99.90;;;;;;10480587;28;20233;-80
2022/01/09 15:49:18;;;;;;;171.63;73.30;;;-1.20;99.90;;;;;;10427759;28;20241;-77
2022/01/09 15:54:41;;;;;;;144.57;68.53;;;-1.20;99.90;;;;;;10443063;28;20195;-80
2022/01/09 16:00:04;;;;;;;181.93;78.73;;;-1.20;99.90;;;;;;10468864;28;20416;-79
2022/01/09 16:05:33;;;;;;;151.50;69.37;;;-1.30;99.90;;;;;;10483991;28;20503;-81
2022/01/09 16:10:54;;;;;;;156.10;70.73;;;-1.30;99.90;;;;;;10482630;28;20248;-80
2022/01/09 16:16:16;;;;;;;157.67;72.23;;;-1.20;99.90;;;;;;10482414;28;20192;-80
2022/01/09 16:21:38;;;;;;;163.17;75.60;;;-1.30;99.90;;;;;;10483865;28;20243;-80
2022/01/09 16:27:01;;;;;;;195.37;85.93;;;-1.30;99.90;;;;;;10482850;28;20192;-80
2022/01/09 16:32:25;;;;;;;170.83;77.97;;;-1.40;99.90;;;;;;10482831;28;20233;-80
2022/01/09 16:37:47;;;;;;;156.33;75.03;;;-1.40;99.90;;;;;;10482053;28;20189;-78
2022/01/09 16:43:08;;;;;;;146.83;70.87;;;-1.40;99.90;;;;;;10482232;28;20234;-80
2022/01/09 16:48:32;;;;;;;161.70;77.07;;;-1.40;99.90;;;;;;10480140;28;20421;-80
2022/01/09 16:53:54;;;;;;;188.23;92.73;;;-1.40;99.90;;;;;;10480606;28;20198;-79
2022/01/09 16:59:17;;;;;;;195.23;96.93;;;-1.50;99.90;;;;;;10482438;28;20202;-80
2022/01/09 17:04:38;;;;;;;191.23;93.53;;;-1.60;99.90;;;;;;10481758;28;20193;-80
2022/01/09 17:10:02;;;;;;;167.90;80.40;;;-1.60;99.90;;;;;;10466163;28;20561;-80
2022/01/09 17:15:24;;;;;;;137.80;69.60;;;-1.60;99.90;;;;;;10481349;28;20208;-82
2022/01/09 17:20:47;;;;;;;157.33;72.70;;;-1.60;99.90;;;;;;10481205;28;20239;-80
2022/01/09 17:26:09;;;;;;;211.63;90.17;;;-1.50;99.90;;;;;;10479853;28;20192;-79
2022/01/09 17:31:31;;;;;;;189.87;82.40;;;-1.60;99.90;;;;;;10479583;28;20233;-80
2022/01/09 17:36:54;;;;;;;188.20;84.20;;;-1.50;99.90;;;;;;10480766;28;20261;-79
2022/01/09 17:42:17;;;;;;;161.07;72.77;;;-1.50;99.90;;;;;;10480139;28;20238;-80
2022/01/09 17:47:40;;;;;;;141.97;65.73;;;-1.50;99.90;;;;;;10478549;28;20277;-77
2022/01/09 17:53:03;;;;;;;128.60;66.30;;;-1.50;99.90;;;;;;10478824;28;20528;-79
2022/01/09 17:58:26;;;;;;;133.87;63.37;;;-1.50;99.90;;;;;;10479246;28;20210;-77
2022/01/09 18:03:48;;;;;;;121.37;61.53;;;-1.50;99.90;;;;;;10477759;28;20194;-78
2022/01/09 18:09:10;;;;;;;121.40;62.53;;;-1.60;99.90;;;;;;10478714;28;20228;-80
2022/01/09 18:14:32;;;;;;;121.53;60.13;;;-1.60;99.90;;;;;;10478221;28;20197;-78
2022/01/09 18:19:54;;;;;;;107.03;54.17;;;-1.60;99.90;;;;;;10478082;28;20215;-78
2022/01/09 18:25:16;;;;;;;114.70;55.43;;;-1.60;99.90;;;;;;10477493;28;20209;-78
2022/01/09 18:30:38;;;;;;;114.57;56.57;;;-1.60;99.90;;;;;;10478320;28;20416;-79
2022/01/09 18:36:01;;;;;;;107.60;54.50;;;-1.60;99.90;;;;;;10477227;28;20204;-80
2022/01/09 18:41:23;;;;;;;110.97;57.17;;;-1.70;99.90;;;;;;10438462;28;20230;-79
2022/01/09 18:46:45;;;;;;;119.63;60.03;;;-1.70;99.90;;;;;;10470504;28;20225;-79
2022/01/09 18:52:06;;;;;;;133.27;64.20;;;-1.70;99.90;;;;;;10477505;28;20535;-77
2022/01/09 18:57:29;;;;;;;184.83;81.80;;;-1.70;99.90;;;;;;10476915;28;20223;-77
2022/01/09 19:02:51;;;;;;;189.60;83.17;;;-1.70;99.90;;;;;;10476490;28;20515;-77
2022/01/09 19:08:14;;;;;;;164.13;75.20;;;-1.80;99.90;;;;;;10477009;28;20306;-77
2022/01/09 19:13:36;;;;;;;159.40;71.10;;;-1.80;99.90;;;;;;10480499;28;20221;-77
2022/01/09 19:18:58;;;;;;;146.73;64.50;;;-1.90;99.90;;;;;;10486160;28;20200;-77
2022/01/09 19:24:21;;;;;;;155.47;67.53;;;-1.90;99.90;;;;;;10484305;28;20213;-77
2022/01/09 19:29:43;;;;;;;182.13;77.47;;;-1.90;99.90;;;;;;10485286;28;20220;-77
2022/01/09 19:35:07;;;;;;;173.67;77.70;;;-1.90;99.90;;;;;;10485456;28;20275;-76
2022/01/09 19:40:30;;;;;;;187.07;81.93;;;-1.90;99.90;;;;;;10485117;28;20515;-77
2022/01/09 19:45:52;;;;;;;179.40;81.07;;;-1.80;99.90;;;;;;10483272;28;20229;-77
2022/01/09 19:51:15;;;;;;;196.67;82.80;;;-1.80;99.90;;;;;;10455644;28;20249;-78
2022/01/09 19:56:36;;;;;;;178.70;72.40;;;-1.90;99.90;;;;;;10483623;28;20218;-78
2022/01/09 20:01:59;;;;;;;137.03;63.13;;;-1.90;99.90;;;;;;10482793;28;20285;-78
2022/01/09 20:07:22;;;;;;;161.73;68.43;;;-1.90;99.90;;;;;;10483751;28;20195;-78
2022/01/09 20:12:44;;;;;;;163.43;71.63;;;-1.90;99.90;;;;;;10482938;28;20229;-76
2022/01/09 20:18:06;;;;;;;126.77;60.00;;;-1.90;99.90;;;;;;10482123;28;20190;-77
2022/01/09 20:23:28;;;;;;;125.33;59.43;;;-1.90;99.90;;;;;;10481347;28;20241;-77
2022/01/09 20:28:49;;;;;;;137.40;62.03;;;-1.90;99.90;;;;;;10483096;28;20200;-78
2022/01/09 20:34:14;;;;;;;115.87;55.23;;;-2.00;99.90;;;;;;10468192;28;20231;-77
2022/01/09 20:39:37;;;;;;;116.43;55.73;;;-2.00;99.90;;;;;;10482794;28;20224;-76
2022/01/09 20:45:03;;;;;;;117.43;52.87;;;-2.00;99.90;;;;;;10480683;28;20264;-77
2022/01/09 20:50:25;;;;;;;136.00;60.63;;;-2.00;99.90;;;;;;10482174;28;20278;-77
2022/01/09 20:55:47;;;;;;;147.27;61.70;;;-2.00;99.90;;;;;;10481261;28;20197;-77
2022/01/09 21:01:09;;;;;;;143.73;59.30;;;-2.00;99.90;;;;;;10481786;28;20194;-75
2022/01/09 21:06:31;;;;;;;152.20;63.57;;;-1.90;99.90;;;;;;10480919;28;20484;-77
2022/01/09 21:11:53;;;;;;;149.73;63.47;;;-1.90;99.90;;;;;;10481816;28;20533;-77
2022/01/09 21:17:16;;;;;;;136.13;59.33;;;-2.00;99.90;;;;;;10511088;28;20220;-77
2022/01/09 21:22:41;;;;;;;131.77;58.70;;;-2.00;99.90;;;;;;10522591;28;20503;-75
2022/01/09 21:28:04;;;;;;;118.23;57.20;;;-2.00;99.90;;;;;;10521030;28;20197;-77
2022/01/09 21:33:28;;;;;;;108.23;53.53;;;-2.00;99.90;;;;;;10507175;28;20235;-74
2022/01/09 21:38:50;;;;;;;118.47;52.73;;;-2.00;99.90;;;;;;10521731;28;20195;-77
2022/01/09 21:44:15;;;;;;;112.07;53.77;;;-2.00;99.90;;;;;;10506194;28;20240;-76
2022/01/09 21:49:39;;;;;;;133.03;59.10;;;-2.00;99.90;;;;;;10478846;28;20220;-75
2022/01/09 21:55:04;;;;;;;115.87;55.70;;;-1.90;99.90;;;;;;10480208;28;20193;-74
2022/01/09 22:00:27;;;;;;;120.33;57.27;;;-2.00;99.90;;;;;;10478414;28;20200;-75
2022/01/09 22:05:49;;;;;;;107.23;50.47;;;-2.00;99.90;;;;;;10479265;28;20562;-76
2022/01/09 22:11:11;;;;;;;102.57;50.60;;;-2.00;99.90;;;;;;10479072;28;20249;-75
2022/01/09 22:16:33;;;;;;;106.13;52.13;;;-2.00;99.90;;;;;;10478225;28;20189;-75
2022/01/09 22:21:55;;;;;;;98.20;47.73;;;-2.00;99.90;;;;;;10478868;28;20219;-74
2022/01/09 22:27:17;;;;;;;99.23;49.37;;;-2.00;99.90;;;;;;10477013;28;20198;-77
2022/01/09 22:32:39;;;;;;;95.80;48.27;;;-2.00;99.90;;;;;;10477554;28;20222;-78
2022/01/09 22:38:02;;;;;;;98.87;51.63;;;-2.00;99.90;;;;;;10476836;28;20397;-75
2022/01/09 22:43:23;;;;;;;96.23;50.47;;;-2.10;99.90;;;;;;10477055;28;20234;-74
2022/01/09 22:48:45;;;;;;;115.80;58.87;;;-2.00;99.90;;;;;;10476101;28;20206;-77
2022/01/09 22:54:07;;;;;;;123.00;59.80;;;-2.10;99.90;;;;;;10462914;28;20209;-77
2022/01/09 22:59:29;;;;;;;176.23;68.83;;;-2.20;99.90;;;;;;10477539;28;20380;-75
2022/01/09 23:04:51;;;;;;;169.53;69.80;;;-2.20;99.90;;;;;;10476211;28;20533;-76
2022/01/09 23:10:13;;;;;;;136.63;61.63;;;-2.30;99.90;;;;;;10477508;28;20231;-79
2022/01/09 23:15:38;;;;;;;112.80;52.70;;;-2.30;99.90;;;;;;10462700;28;20192;-78
2022/01/09 23:21:00;;;;;;;137.63;68.03;;;-2.30;99.90;;;;;;10476342;28;20268;-81
2022/01/09 23:26:22;;;;;;;165.10;79.07;;;-2.30;99.90;;;;;;10461737;28;20200;-78
2022/01/09 23:31:44;;;;;;;198.47;87.23;;;-2.30;99.90;;;;;;10448512;28;20229;-77
2022/01/09 23:37:23;;;;;;;207.57;87.23;;;-2.30;99.90;;;;;;10475899;28;20265;-77
2022/01/09 23:42:46;;;;;;;177.23;80.70;;;-2.30;99.90;;;;;;10476025;28;20225;-78
2022/01/09 23:53:41;;;;;;;157.87;65.13;;;-2.20;99.90;;;;;;10476403;28;20225;-76
2022/01/09 23:59:03;;;;;;;210.07;82.80;;;-2.20;99.90;;;;;;10477800;28;20278;-77
